Apodaca, New Mexico
Current Conditions -  °F | °C
As of 1:35 AM on Monday 26 Jan 2015 (Local Time) from KSKX Reporting Station
Clear Clear  
Wind Chill: 21°   Ceiling: Unl
Heat Index: 27°   Visibility: 10mi
Dew Point: 19°   Wind: 5mph
Humidity: 74%   Direction: 30°NNE
Pressure: 30.4"   Gusts: NA
Location:  36.1644°N, 105.863°W
Report Text: KSKX 260835Z AUTO 03004KT 10SM CLR M03/M07 A3040 RMK AO1
Loading
Personal Weather Stations






























Interactive Weather Map New forecast layout! Learn more

10-Day Weather Forecast

Advertisements
Track Severe Weather on mobile